Time;durP1;ratioP1;P1;durP2;ratioP2;P2;SDS_P1;SDS_P2;PMS_P1;PMS_P2;Temp;Humidity;BMP_temperature;BMP_pressure;BME280_temperature;BME280_humidity;BME280_pressure;Samples;Min_cycle;Max_cycle;Signal;HPM_P1;HPM_P2
2023/10/07 00:02:12;;;;;;;342.47;109.10;;;;;11.80;97584.00;;;;5046703;28;20307;-82
2023/10/07 00:05:01;;;;;;;338.00;106.80;;;;;11.60;97587.00;;;;5046672;28;20193;-81
2023/10/07 00:07:51;;;;;;;346.90;110.03;;;;;11.50;97577.00;;;;5050119;28;20697;-82
2023/10/07 00:10:41;;;;;;;348.23;110.23;;;;;11.70;97582.00;;;;5052066;28;20603;-83
2023/10/07 00:13:31;;;;;;;342.10;103.47;;;;;12.00;97579.00;;;;5046350;28;20219;-81
2023/10/07 00:16:23;;;;;;;348.27;108.87;;;;;11.80;97583.00;;;;5053970;28;20220;-80
2023/10/07 00:19:13;;;;;;;337.90;106.07;;;;;11.80;97577.00;;;;5067789;28;20291;-84
2023/10/07 00:22:08;;;;;;;350.60;110.50;;;;;11.70;97571.00;;;;5070839;28;20250;-83
2023/10/07 00:24:59;;;;;;;347.93;107.47;;;;;11.60;97568.00;;;;5060257;28;20665;-85
2023/10/07 00:27:48;;;;;;;353.60;111.63;;;;;11.60;97564.00;;;;5060001;28;20327;-84
2023/10/07 00:30:38;;;;;;;351.90;113.43;;;;;12.20;97570.00;;;;5061189;28;20216;-84
2023/10/07 00:33:27;;;;;;;347.40;105.43;;;;;12.20;97562.00;;;;5065855;28;20204;-85
2023/10/07 00:36:33;;;;;;;342.73;107.33;;;;;11.90;97559.00;;;;5058512;28;20756;-85
2023/10/07 00:39:23;;;;;;;350.93;108.33;;;;;11.80;97558.00;;;;5058498;28;20231;-84
2023/10/07 00:42:14;;;;;;;344.70;108.00;;;;;11.20;97552.00;;;;5058756;28;20204;-82
2023/10/07 00:45:13;;;;;;;341.03;104.53;;;;;11.20;97551.00;;;;5058937;28;20560;-84
2023/10/07 00:48:05;;;;;;;340.20;103.13;;;;;11.30;97542.00;;;;5056827;28;20235;-83
2023/10/07 00:50:56;;;;;;;343.63;107.20;;;;;11.30;97537.00;;;;5059749;28;20223;-85
2023/10/07 00:53:46;;;;;;;348.63;113.00;;;;;11.60;97538.00;;;;5058665;28;20209;-86
2023/10/07 00:56:37;;;;;;;345.47;110.60;;;;;11.40;97533.00;;;;5058924;28;20221;-85
2023/10/07 00:59:27;;;;;;;343.50;106.80;;;;;11.20;97527.00;;;;5060237;28;20228;-86
2023/10/07 01:02:18;;;;;;;343.13;104.23;;;;;10.40;97520.00;;;;5060591;28;20580;-84
2023/10/07 01:05:13;;;;;;;339.23;100.43;;;;;10.80;97531.00;;;;5059582;28;20238;-83
2023/10/07 01:08:06;;;;;;;343.63;102.97;;;;;10.80;97533.00;;;;5060171;28;20697;-85
2023/10/07 01:11:06;;;;;;;340.83;102.00;;;;;10.80;97530.00;;;;5059305;28;20233;-83
2023/10/07 01:13:59;;;;;;;334.37;99.27;;;;;10.80;97527.00;;;;5056762;28;20208;-84
2023/10/07 01:16:52;;;;;;;336.97;102.80;;;;;11.40;97530.00;;;;5059393;28;20220;-84
2023/10/07 01:19:52;;;;;;;350.83;105.53;;;;;11.60;97523.00;;;;5058029;28;20618;-83
2023/10/07 01:23:02;;;;;;;350.53;105.87;;;;;11.80;97519.00;;;;5057928;28;20701;-85
2023/10/07 01:25:51;;;;;;;345.93;102.80;;;;;11.80;97512.00;;;;5058492;28;20204;-86
2023/10/07 01:28:40;;;;;;;357.10;109.30;;;;;11.40;97514.00;;;;5060585;28;20239;-85
2023/10/07 01:31:29;;;;;;;348.43;102.23;;;;;11.00;97509.00;;;;5058970;28;20220;-86
2023/10/07 01:34:19;;;;;;;353.00;105.53;;;;;11.10;97510.00;;;;5051914;28;20499;-83
2023/10/07 01:37:11;;;;;;;359.43;106.40;;;;;11.40;97515.00;;;;5058234;28;20228;-82
2023/10/07 01:40:03;;;;;;;347.47;102.63;;;;;11.60;97504.00;;;;5057225;28;20201;-84
2023/10/07 01:42:53;;;;;;;351.23;102.53;;;;;11.70;97502.00;;;;5056866;28;20207;-83
2023/10/07 01:45:42;;;;;;;350.53;104.07;;;;;11.30;97497.00;;;;5053917;28;20243;-86
2023/10/07 01:48:35;;;;;;;350.43;101.90;;;;;11.10;97497.00;;;;5053117;28;20221;-83
2023/10/07 01:51:26;;;;;;;350.53;102.90;;;;;10.80;97498.00;;;;5059941;28;20219;-81
2023/10/07 01:54:15;;;;;;;352.10;100.20;;;;;11.00;97489.00;;;;5058219;28;20205;-84
2023/10/07 01:57:07;;;;;;;359.87;109.20;;;;;11.10;97497.00;;;;5059998;28;20224;-83
2023/10/07 01:59:58;;;;;;;356.67;102.03;;;;;11.00;97497.00;;;;5051517;28;20236;-81
2023/10/07 02:02:50;;;;;;;354.93;103.67;;;;;10.60;97494.00;;;;5057003;28;20621;-85
2023/10/07 02:05:40;;;;;;;359.77;107.20;;;;;11.00;97497.00;;;;5054393;28;20592;-84
2023/10/07 02:08:30;;;;;;;349.23;97.40;;;;;10.90;97495.00;;;;5054760;28;20262;-84
2023/10/07 02:11:28;;;;;;;352.70;100.37;;;;;10.70;97493.00;;;;5050369;28;20680;-82
2023/10/07 02:14:21;;;;;;;357.80;104.97;;;;;10.50;97486.00;;;;5056691;28;20204;-83
2023/10/07 02:17:11;;;;;;;361.37;104.27;;;;;10.20;97488.00;;;;5059356;28;20224;-83
2023/10/07 02:20:21;;;;;;;349.87;95.70;;;;;10.50;97490.00;;;;5054422;28;20229;-83
2023/10/07 02:23:12;;;;;;;350.63;97.57;;;;;10.60;97486.00;;;;5056559;28;20200;-83
2023/10/07 02:26:01;;;;;;;348.67;94.13;;;;;10.40;97485.00;;;;5050731;28;20215;-83
2023/10/07 02:28:52;;;;;;;358.17;100.03;;;;;10.80;97494.00;;;;5053378;28;20221;-82
2023/10/07 02:31:43;;;;;;;359.60;100.47;;;;;11.30;97500.00;;;;5054222;28;20509;-82
2023/10/07 02:34:33;;;;;;;347.67;96.20;;;;;11.40;97500.00;;;;5049485;28;20215;-83
2023/10/07 02:37:25;;;;;;;358.43;98.90;;;;;11.40;97493.00;;;;5053755;28;20256;-83
2023/10/07 02:40:20;;;;;;;359.60;105.53;;;;;11.20;97496.00;;;;5050886;28;20211;-82
2023/10/07 02:43:09;;;;;;;358.40;102.27;;;;;11.30;97495.00;;;;5053219;28;20209;-83
2023/10/07 02:45:59;;;;;;;357.90;102.50;;;;;11.20;97489.00;;;;5053443;28;20197;-83
2023/10/07 02:48:49;;;;;;;362.10;104.87;;;;;10.70;97482.00;;;;5051233;28;20239;-82
2023/10/07 02:51:45;;;;;;;357.77;99.27;;;;;10.50;97479.00;;;;5057657;28;20208;-83
2023/10/07 02:54:41;;;;;;;354.77;99.87;;;;;10.20;97480.00;;;;5041841;28;20204;-85
2023/10/07 02:57:39;;;;;;;351.27;100.07;;;;;10.60;97491.00;;;;5057357;28;20232;-81
2023/10/07 03:00:35;;;;;;;353.83;96.90;;;;;10.90;97491.00;;;;5051832;28;20226;-84
2023/10/07 03:03:38;;;;;;;344.50;101.43;;;;;11.00;97486.00;;;;5052900;28;20250;-83
2023/10/07 03:06:28;;;;;;;352.20;96.17;;;;;10.80;97485.00;;;;5052031;28;20209;-84
2023/10/07 03:09:19;;;;;;;349.23;97.23;;;;;10.80;97489.00;;;;5049846;28;20224;-82
2023/10/07 03:12:12;;;;;;;342.77;89.27;;;;;10.60;97481.00;;;;5050919;28;20223;-83
2023/10/07 03:15:08;;;;;;;345.10;94.40;;;;;10.70;97478.00;;;;5052628;28;20434;-85
2023/10/07 03:17:57;;;;;;;343.93;93.70;;;;;10.40;97474.00;;;;5056563;28;20228;-85
2023/10/07 03:20:59;;;;;;;364.30;110.50;;;;;10.20;97483.00;;;;5051408;28;20427;-84
2023/10/07 03:23:58;;;;;;;276.37;105.77;;;;;10.50;97481.00;;;;5050839;28;20208;-83
2023/10/07 03:26:53;;;;;;;291.03;108.27;;;;;10.70;97488.00;;;;5050542;28;20216;-82
2023/10/07 03:29:57;;;;;;;291.00;101.37;;;;;10.70;97481.00;;;;5049197;28;20212;-83
2023/10/07 03:32:55;;;;;;;301.63;104.17;;;;;10.10;97481.00;;;;5054837;28;20211;-82
2023/10/07 03:36:08;;;;;;;298.97;105.63;;;;;10.30;97477.00;;;;5054556;28;20681;-83
2023/10/07 03:39:11;;;;;;;302.97;101.13;;;;;10.90;97487.00;;;;5050205;28;20212;-84
2023/10/07 03:42:02;;;;;;;301.37;100.47;;;;;10.80;97491.00;;;;5051531;28;20547;-84
2023/10/07 03:44:51;;;;;;;322.57;108.63;;;;;10.60;97490.00;;;;5052308;28;20200;-82
2023/10/07 03:47:41;;;;;;;334.13;108.17;;;;;10.00;97483.00;;;;5049509;28;20235;-83
2023/10/07 03:50:34;;;;;;;338.67;103.03;;;;;10.30;97488.00;;;;5052675;28;20212;-83
2023/10/07 03:53:24;;;;;;;347.40;96.33;;;;;10.70;97482.00;;;;5050670;28;20688;-83
2023/10/07 03:56:15;;;;;;;353.57;95.40;;;;;10.90;97483.00;;;;5047116;28;20211;-82
2023/10/07 03:59:05;;;;;;;297.83;101.33;;;;;11.20;97489.00;;;;5047161;28;20251;-84
2023/10/07 04:01:54;;;;;;;322.17;102.60;;;;;11.20;97482.00;;;;5051643;28;20215;-83
2023/10/07 04:04:43;;;;;;;349.73;106.70;;;;;11.10;97491.00;;;;5046760;28;20205;-81
2023/10/07 04:07:32;;;;;;;352.00;98.80;;;;;10.70;97478.00;;;;5046547;28;20215;-84
2023/10/07 04:10:31;;;;;;;342.87;101.30;;;;;11.00;97473.00;;;;5050247;28;20204;-82
2023/10/07 04:13:22;;;;;;;329.30;101.77;;;;;10.70;97471.00;;;;5051362;28;20249;-84
2023/10/07 04:16:22;;;;;;;317.47;101.67;;;;;10.90;97472.00;;;;5050058;28;20223;-82
2023/10/07 04:19:34;;;;;;;324.73;103.23;;;;;10.10;97475.00;;;;5051723;28;20209;-82
2023/10/07 04:22:24;;;;;;;331.40;94.63;;;;;9.80;97472.00;;;;5053532;28;20196;-83
2023/10/07 04:25:17;;;;;;;354.00;102.77;;;;;9.70;97464.00;;;;5052771;28;20216;-82
2023/10/07 04:28:07;;;;;;;356.97;101.27;;;;;10.40;97470.00;;;;5059944;28;20224;-81
2023/10/07 04:30:58;;;;;;;314.37;98.10;;;;;10.60;97472.00;;;;5070806;28;20205;-81
2023/10/07 04:33:53;;;;;;;325.33;105.33;;;;;10.70;97477.00;;;;5065644;28;20200;-86
2023/10/07 04:37:08;;;;;;;375.17;112.50;;;;;10.70;97476.00;;;;5054728;28;20564;-85
2023/10/07 04:46:21;;;;;;;276.33;101.90;;;;;10.10;97468.00;;;;5059156;28;20215;-84
2023/10/07 04:49:12;;;;;;;316.07;99.80;;;;;10.10;97480.00;;;;5061777;28;20223;-84
2023/10/07 04:52:04;;;;;;;346.33;98.20;;;;;9.90;97475.00;;;;5053722;28;20208;-84
2023/10/07 04:54:53;;;;;;;259.00;106.07;;;;;10.30;97475.00;;;;5059786;28;20208;-85
2023/10/07 04:57:44;;;;;;;257.80;105.50;;;;;10.60;97474.00;;;;5055500;28;20228;-85
2023/10/07 05:00:37;;;;;;;251.33;100.93;;;;;10.90;97473.00;;;;5058064;28;20712;-85
2023/10/07 05:03:26;;;;;;;254.37;99.60;;;;;10.60;97471.00;;;;5059175;28;20239;-82
2023/10/07 05:06:15;;;;;;;281.77;103.53;;;;;10.70;97474.00;;;;5058139;28;20204;-85
2023/10/07 05:09:09;;;;;;;321.30;102.77;;;;;10.80;97466.00;;;;5061213;28;20212;-82
2023/10/07 05:11:58;;;;;;;345.00;100.67;;;;;10.40;97471.00;;;;5059529;28;20201;-84
2023/10/07 05:14:47;;;;;;;278.00;109.37;;;;;10.60;97478.00;;;;5064132;28;20219;-85
2023/10/07 05:17:36;;;;;;;283.07;112.90;;;;;10.60;97482.00;;;;5051697;28;20227;-85
2023/10/07 05:20:27;;;;;;;268.73;104.87;;;;;10.20;97476.00;;;;5054105;28;20967;-85
2023/10/07 05:23:17;;;;;;;282.27;108.23;;;;;9.80;97475.00;;;;5052127;28;20472;-84
2023/10/07 05:26:09;;;;;;;273.20;102.23;;;;;9.80;97478.00;;;;5056012;28;20211;-81
2023/10/07 05:29:01;;;;;;;283.40;107.10;;;;;9.60;97479.00;;;;5055933;28;20770;-86
2023/10/07 05:31:51;;;;;;;299.80;107.20;;;;;9.80;97485.00;;;;5050911;28;20216;-82
2023/10/07 05:34:41;;;;;;;308.77;109.23;;;;;10.00;97493.00;;;;5050201;28;20212;-82
2023/10/07 05:37:32;;;;;;;315.37;102.73;;;;;10.30;97499.00;;;;5052215;28;20224;-85
2023/10/07 05:40:22;;;;;;;328.00;101.50;;;;;10.90;97488.00;;;;5048380;28;20212;-84
2023/10/07 05:43:11;;;;;;;327.90;99.50;;;;;10.80;97497.00;;;;5046527;28;20212;-87
2023/10/07 05:46:01;;;;;;;334.07;99.70;;;;;10.60;97492.00;;;;5053871;28;20223;-85
2023/10/07 05:48:51;;;;;;;356.50;112.67;;;;;10.30;97492.00;;;;5048142;28;20229;-83
2023/10/07 05:51:41;;;;;;;355.80;110.60;;;;;10.40;97489.00;;;;5052412;28;20231;-83
2023/10/07 05:54:32;;;;;;;345.07;101.70;;;;;10.70;97494.00;;;;5049125;28;20233;-83
2023/10/07 05:57:21;;;;;;;358.23;103.43;;;;;10.90;97495.00;;;;5047043;28;20622;-83
2023/10/07 06:00:11;;;;;;;355.13;102.27;;;;;11.00;97505.00;;;;5048673;28;20705;-83
2023/10/07 06:03:05;;;;;;;355.77;101.70;;;;;10.80;97510.00;;;;5048078;28;20216;-81
2023/10/07 06:05:57;;;;;;;352.97;100.90;;;;;10.60;97513.00;;;;5047350;28;20208;-81
2023/10/07 06:08:46;;;;;;;362.03;103.77;;;;;10.40;97509.00;;;;5049703;28;20216;-85
2023/10/07 06:11:37;;;;;;;359.40;105.33;;;;;10.40;97504.00;;;;5045708;28;20204;-81
2023/10/07 06:14:26;;;;;;;358.10;106.17;;;;;10.60;97512.00;;;;5053080;28;20234;-83
2023/10/07 06:17:15;;;;;;;350.30;106.63;;;;;11.20;97516.00;;;;5049768;28;20228;-83
2023/10/07 06:20:14;;;;;;;364.10;108.43;;;;;11.60;97513.00;;;;5045037;28;20708;-84
2023/10/07 06:23:13;;;;;;;357.13;104.93;;;;;11.60;97513.00;;;;5047690;28;20743;-84
2023/10/07 06:26:09;;;;;;;355.87;105.87;;;;;11.80;97513.00;;;;5050026;28;20220;-84
2023/10/07 06:29:05;;;;;;;359.03;105.60;;;;;11.60;97512.00;;;;5046681;28;20220;-83
2023/10/07 06:32:12;;;;;;;362.63;106.77;;;;;11.40;97516.00;;;;5046322;28;20242;-85
2023/10/07 06:35:01;;;;;;;356.57;106.47;;;;;11.00;97514.00;;;;5046909;28;20262;-81
2023/10/07 06:37:52;;;;;;;376.77;119.00;;;;;11.20;97524.00;;;;5048212;28;20227;-84
2023/10/07 06:40:43;;;;;;;374.50;113.80;;;;;11.50;97526.00;;;;5047772;28;20258;-84
2023/10/07 06:43:33;;;;;;;360.83;104.63;;;;;11.00;97521.00;;;;5051331;28;20242;-82
2023/10/07 06:46:23;;;;;;;380.70;117.97;;;;;11.20;97515.00;;;;5047722;28;20208;-83
2023/10/07 06:49:16;;;;;;;368.50;111.00;;;;;11.50;97529.00;;;;5049744;28;20223;-84
2023/10/07 06:52:06;;;;;;;363.20;108.57;;;;;11.40;97519.00;;;;5054403;28;20216;-80
2023/10/07 06:54:55;;;;;;;365.13;108.40;;;;;11.70;97518.00;;;;5043441;28;20193;-84
2023/10/07 06:57:56;;;;;;;375.93;116.00;;;;;11.90;97530.00;;;;5049568;28;20224;-83
2023/10/07 07:00:48;;;;;;;370.50;113.47;;;;;11.60;97535.00;;;;5044487;28;20207;-85
2023/10/07 07:03:39;;;;;;;359.50;110.63;;;;;12.40;97534.00;;;;5047331;28;20201;-85
2023/10/07 07:06:34;;;;;;;365.60;107.87;;;;;12.20;97537.00;;;;5049893;28;20266;-86
2023/10/07 07:12:32;;;;;;;363.33;107.77;;;;;12.70;97545.00;;;;5054759;28;20699;-83
2023/10/07 07:15:27;;;;;;;380.53;122.33;;;;;12.80;97542.00;;;;5046867;28;20211;-83
2023/10/07 07:18:19;;;;;;;380.27;122.23;;;;;12.90;97542.00;;;;5055623;28;20772;-85
2023/10/07 07:21:31;;;;;;;374.77;118.13;;;;;12.80;97532.00;;;;5048543;28;20233;-83
2023/10/07 07:24:25;;;;;;;373.20;116.83;;;;;12.90;97542.00;;;;5044561;28;20205;-84
2023/10/07 07:27:17;;;;;;;370.80;118.67;;;;;13.00;97543.00;;;;5056437;28;20328;-84
2023/10/07 07:30:07;;;;;;;389.27;133.27;;;;;13.00;97539.00;;;;5040311;28;20917;-81
2023/10/07 07:32:59;;;;;;;368.77;120.17;;;;;13.30;97540.00;;;;5047518;28;20223;-82
2023/10/07 07:35:51;;;;;;;377.40;125.73;;;;;13.70;97539.00;;;;5051002;28;20573;-84
2023/10/07 07:38:44;;;;;;;377.13;126.43;;;;;13.90;97544.00;;;;5043819;28;20881;-84
2023/10/07 07:41:37;;;;;;;368.93;119.73;;;;;14.20;97542.00;;;;5047967;28;20196;-86
2023/10/07 07:44:37;;;;;;;378.00;130.93;;;;;14.10;97537.00;;;;5052985;28;20223;-83
2023/10/07 07:47:30;;;;;;;379.27;133.00;;;;;14.70;97541.00;;;;5043551;28;21006;-83
2023/10/07 07:50:20;;;;;;;376.17;129.40;;;;;14.20;97532.00;;;;5048473;28;20211;-82
2023/10/07 07:53:09;;;;;;;376.50;132.47;;;;;14.70;97537.00;;;;5046285;28;20668;-82
2023/10/07 07:56:00;;;;;;;389.57;140.53;;;;;14.60;97534.00;;;;5048159;28;20213;-82
2023/10/07 07:58:49;;;;;;;388.67;141.27;;;;;14.80;97538.00;;;;5047172;28;20597;-83
2023/10/07 08:01:38;;;;;;;382.30;140.93;;;;;14.70;97542.00;;;;5056620;28;20235;-83
2023/10/07 08:07:33;;;;;;;366.50;126.53;;;;;15.40;97546.00;;;;5050566;28;20231;-83
2023/10/07 08:10:23;;;;;;;389.33;147.40;;;;;15.70;97550.00;;;;5049851;28;20209;-85
2023/10/07 08:13:17;;;;;;;382.27;147.20;;;;;16.20;97539.00;;;;5056509;28;20212;-83
2023/10/07 08:16:06;;;;;;;389.47;164.93;;;;;16.70;97546.00;;;;5047269;28;20210;-83
2023/10/07 08:18:56;;;;;;;395.80;162.37;;;;;16.90;97542.00;;;;5046268;28;20232;-84
2023/10/07 08:21:46;;;;;;;395.10;168.30;;;;;16.90;97541.00;;;;5049087;28;20216;-84
2023/10/07 08:24:39;;;;;;;389.50;168.80;;;;;17.10;97550.00;;;;5052830;28;20200;-84
2023/10/07 08:27:49;;;;;;;390.80;170.97;;;;;17.30;97538.00;;;;5047812;28;20205;-84
2023/10/07 08:30:39;;;;;;;386.67;169.03;;;;;17.40;97544.00;;;;5046820;28;20208;-84
2023/10/07 08:33:33;;;;;;;388.63;174.50;;;;;17.60;97548.00;;;;5052178;28;20200;-84
2023/10/07 08:36:29;;;;;;;406.10;188.73;;;;;17.70;97550.00;;;;5053509;28;20207;-83
2023/10/07 08:39:27;;;;;;;394.83;190.87;;;;;17.80;97544.00;;;;5054001;28;20259;-84
2023/10/07 08:42:24;;;;;;;422.00;201.00;;;;;18.00;97540.00;;;;5065189;28;20207;-83
2023/10/07 08:45:23;;;;;;;403.10;191.50;;;;;18.30;97546.00;;;;5063517;28;20188;-81
2023/10/07 08:48:15;;;;;;;400.63;197.20;;;;;18.30;97549.00;;;;5053209;28;20236;-84
2023/10/07 08:51:10;;;;;;;398.07;202.23;;;;;18.50;97544.00;;;;5051220;28;20211;-83
2023/10/07 08:54:07;;;;;;;394.27;200.43;;;;;18.90;97543.00;;;;5050060;28;20209;-85
2023/10/07 08:56:57;;;;;;;403.00;213.40;;;;;19.00;97543.00;;;;5049967;28;20205;-85
2023/10/07 08:59:49;;;;;;;415.13;222.00;;;;;19.00;97547.00;;;;5047494;28;20229;-86
2023/10/07 09:02:40;;;;;;;409.73;228.00;;;;;19.30;97545.00;;;;5057304;28;20201;-87
2023/10/07 09:05:30;;;;;;;397.60;221.00;;;;;19.50;97546.00;;;;5053349;28;20209;-86
2023/10/07 09:08:22;;;;;;;398.23;216.97;;;;;19.70;97536.00;;;;5050244;28;20234;-86
2023/10/07 09:11:18;;;;;;;398.00;225.97;;;;;19.70;97544.00;;;;5054035;28;20201;-87
2023/10/07 09:14:08;;;;;;;414.80;249.90;;;;;19.60;97540.00;;;;5060576;28;20200;-85
2023/10/07 09:16:57;;;;;;;413.13;243.43;;;;;19.50;97538.00;;;;5057935;28;20978;-84
2023/10/07 09:19:48;;;;;;;419.70;250.40;;;;;19.80;97536.00;;;;5056942;28;20223;-84
2023/10/07 09:22:45;;;;;;;405.40;245.77;;;;;19.70;97533.00;;;;5059857;28;20800;-84
2023/10/07 09:25:34;;;;;;;401.00;244.10;;;;;19.70;97531.00;;;;5061314;28;20200;-85
2023/10/07 09:28:30;;;;;;;401.57;248.37;;;;;19.70;97529.00;;;;5065638;28;20220;-86
2023/10/07 09:31:23;;;;;;;396.80;241.37;;;;;19.90;97527.00;;;;5067621;28;20314;-86
2023/10/07 09:34:30;;;;;;;403.90;241.17;;;;;19.80;97525.00;;;;5061394;28;20196;-85
2023/10/07 09:37:21;;;;;;;406.93;250.47;;;;;19.30;97524.00;;;;5067138;28;20196;-83
2023/10/07 09:41:06;;;;;;;401.17;242.63;;;;;19.60;97533.00;;;;5063609;28;20220;-87
2023/10/07 09:43:27;;;;;;;398.50;240.70;;;;;19.30;97513.00;;;;5066788;28;20731;-84
2023/10/07 09:46:24;;;;;;;399.87;243.70;;;;;19.80;97510.00;;;;5060752;28;20200;-81
2023/10/07 09:49:18;;;;;;;398.77;244.97;;;;;20.20;97494.00;;;;5057609;28;20221;-84
2023/10/07 09:52:16;;;;;;;398.80;248.40;;;;;20.90;97495.00;;;;5059581;28;20209;-85
2023/10/07 09:55:26;;;;;;;400.97;251.23;;;;;21.30;97493.00;;;;5059190;28;20201;-82
2023/10/07 09:58:36;;;;;;;401.27;264.53;;;;;22.30;97491.00;;;;5064264;28;20244;-83
2023/10/07 10:01:36;;;;;;;413.73;282.00;;;;;22.90;97495.00;;;;5059314;28;20216;-81
2023/10/07 10:04:50;;;;;;;408.03;293.17;;;;;23.00;97503.00;;;;5063443;28;20237;-83
2023/10/07 10:07:58;;;;;;;410.07;299.83;;;;;23.30;97502.00;;;;5059278;28;20221;-83
2023/10/07 10:10:57;;;;;;;422.60;314.20;;;;;23.50;97498.00;;;;5060481;28;20201;-84
2023/10/07 10:13:57;;;;;;;415.70;317.37;;;;;23.50;97493.00;;;;5061523;28;20760;-85
2023/10/07 10:16:51;;;;;;;425.20;330.37;;;;;23.80;97492.00;;;;5061260;28;20207;-85
2023/10/07 10:19:44;;;;;;;411.13;323.00;;;;;24.40;97485.00;;;;5059609;28;20236;-84
2023/10/07 10:22:34;;;;;;;410.77;319.90;;;;;24.80;97485.00;;;;5058983;28;20203;-83
2023/10/07 10:25:36;;;;;;;422.33;354.27;;;;;24.90;97473.00;;;;5058664;28;20554;-84
2023/10/07 10:28:27;;;;;;;420.00;371.27;;;;;25.20;97480.00;;;;5063266;28;20234;-84
2023/10/07 10:31:22;;;;;;;445.97;397.70;;;;;25.90;97458.00;;;;5059973;28;20708;-85
2023/10/07 10:34:14;;;;;;;457.60;409.17;;;;;26.70;97458.00;;;;5056145;28;20219;-86
2023/10/07 10:37:06;;;;;;;485.57;436.13;;;;;26.70;97451.00;;;;5055470;28;20208;-83
2023/10/07 10:39:55;;;;;;;501.00;451.10;;;;;27.30;97456.00;;;;5056063;28;20230;-87
2023/10/07 10:42:47;;;;;;;525.03;474.73;;;;;27.60;97454.00;;;;5057394;28;20197;-86
2023/10/07 10:45:41;;;;;;;545.47;495.10;;;;;28.10;97446.00;;;;5052409;28;20201;-86
2023/10/07 10:48:31;;;;;;;542.17;492.33;;;;;28.60;97435.00;;;;5054519;28;20292;-84
2023/10/07 10:51:20;;;;;;;578.20;527.10;;;;;28.40;97439.00;;;;5053831;28;20207;-83
2023/10/07 10:54:09;;;;;;;593.83;542.10;;;;;28.90;97434.00;;;;5053289;28;20225;-87
2023/10/07 10:56:59;;;;;;;617.23;564.47;;;;;29.00;97431.00;;;;5055633;28;20214;-85
2023/10/07 10:59:48;;;;;;;634.83;581.77;;;;;29.70;97421.00;;;;5053995;28;20223;-85
2023/10/07 11:02:41;;;;;;;641.83;589.47;;;;;30.00;97412.00;;;;5057695;28;20209;-87
2023/10/07 11:05:30;;;;;;;659.70;606.57;;;;;30.50;97416.00;;;;5057512;28;20208;-86
2023/10/07 11:08:23;;;;;;;667.23;613.97;;;;;30.70;97410.00;;;;5056783;28;20224;-87
2023/10/07 11:11:14;;;;;;;673.17;620.07;;;;;30.70;97410.00;;;;5058317;28;20216;-84
2023/10/07 11:14:09;;;;;;;694.43;640.93;;;;;30.60;97409.00;;;;5055303;28;20202;-85
2023/10/07 11:17:00;;;;;;;705.17;650.87;;;;;30.90;97401.00;;;;5062084;28;20712;-84
2023/10/07 11:19:51;;;;;;;702.00;648.00;;;;;31.40;97400.00;;;;5059059;28;20237;-87
2023/10/07 11:22:42;;;;;;;708.40;654.67;;;;;31.10;97395.00;;;;5058816;28;20209;-86
2023/10/07 11:25:33;;;;;;;717.87;663.70;;;;;31.40;97390.00;;;;5063309;28;20211;-84
2023/10/07 11:28:23;;;;;;;726.60;672.50;;;;;30.60;97388.00;;;;5063571;28;20248;-84
2023/10/07 11:31:12;;;;;;;928.70;868.78;;;;;31.20;97383.00;;;;5067283;28;20417;-85
2023/10/07 11:34:04;;;;;;;949.08;888.63;;;;;31.90;97379.00;;;;5067948;28;20386;-87
2023/10/07 11:36:55;;;;;;;968.45;907.85;;;;;32.40;97375.00;;;;5062108;28;20412;-85
2023/10/07 11:39:48;;;;;;;995.67;934.58;;;;;32.60;97372.00;;;;5061315;28;20397;-86
2023/10/07 11:42:37;;;;;;;1009.92;948.38;;;;;33.10;97366.00;;;;5061050;28;20404;-87
2023/10/07 11:45:28;;;;;;;1020.65;959.05;;;;;33.70;97361.00;;;;5055563;28;20398;-86
2023/10/07 11:48:19;;;;;;;1025.90;964.63;;;;;34.00;97365.00;;;;5056314;28;20389;-86
2023/10/07 11:51:09;;;;;;;1028.78;967.22;;;;;33.80;97363.00;;;;5046872;28;20551;-86
2023/10/07 11:54:00;;;;;;;1033.70;971.80;;;;;34.20;97363.00;;;;5053224;28;20392;-87
2023/10/07 11:56:49;;;;;;;1040.38;978.55;;;;;34.00;97362.00;;;;5055103;28;20390;-85
2023/10/07 11:59:42;;;;;;;1035.15;973.75;;;;;34.30;97358.00;;;;5054111;28;20401;-86
2023/10/07 12:02:31;;;;;;;1044.13;982.67;;;;;34.80;97361.00;;;;5055995;28;20393;-85
2023/10/07 12:05:20;;;;;;;1037.55;976.20;;;;;35.10;97357.00;;;;5054043;28;20394;-87
2023/10/07 12:08:11;;;;;;;;;;;;;34.90;97363.00;;;;5054674;28;20871;-87
2023/10/07 12:11:04;;;;;;;;;;;;;34.70;97359.00;;;;5058381;28;19978;-84
2023/10/07 12:13:53;;;;;;;;;;;;;35.20;97353.00;;;;5056584;28;20050;-85
2023/10/07 12:16:43;;;;;;;;;;;;;35.10;97355.00;;;;5058041;28;19921;-86
2023/10/07 12:19:32;;;;;;;;;;;;;35.00;97350.00;;;;5055936;28;19920;-87
2023/10/07 12:22:21;;;;;;;;;;;;;35.30;97347.00;;;;5057121;28;19920;-86
2023/10/07 12:25:16;;;;;;;;;;;;;32.10;97341.00;;;;5057544;28;19921;-85
2023/10/07 12:28:06;;;;;;;;;;;;;34.40;97342.00;;;;5059176;28;19925;-87
2023/10/07 12:30:56;;;;;;;;;;;;;34.50;97338.00;;;;5057952;28;19935;-85
2023/10/07 12:33:45;;;;;;;;;;;;;36.00;97333.00;;;;5051067;28;19925;-85
2023/10/07 12:36:34;;;;;;;;;;;;;36.20;97324.00;;;;5054576;28;19921;-87
2023/10/07 12:39:23;;;;;;;;;;;;;36.30;97332.00;;;;5054286;28;19921;-88
2023/10/07 12:42:12;;;;;;;;;;;;;36.60;97330.00;;;;5056478;28;19921;-86
2023/10/07 12:45:03;;;;;;;;;;;;;36.90;97333.00;;;;5043983;28;19936;-84
2023/10/07 12:47:52;;;;;;;;;;;;;37.60;97333.00;;;;5057124;28;20297;-83
2023/10/07 12:50:42;;;;;;;;;;;;;37.70;97325.00;;;;5060136;28;19988;-83
2023/10/07 12:53:30;;;;;;;;;;;;;36.60;97325.00;;;;5062473;28;19925;-83
2023/10/07 12:56:19;;;;;;;;;;;;;37.60;97333.00;;;;5064585;28;19920;-85
2023/10/07 12:59:17;;;;;;;;;;;;;37.60;97329.00;;;;5051041;28;19921;-86
2023/10/07 13:02:09;;;;;;;;;;;;;37.70;97324.00;;;;5050876;28;19920;-85
2023/10/07 13:04:58;;;;;;;;;;;;;37.80;97327.00;;;;5060254;28;20328;-85
2023/10/07 13:07:47;;;;;;;;;;;;;36.70;97333.00;;;;5080528;28;19927;-85
2023/10/07 13:10:36;;;;;;;;;;;;;34.40;97327.00;;;;5070579;28;19919;-81
2023/10/07 13:13:25;;;;;;;;;;;;;34.40;97320.00;;;;5064419;28;19988;-84
2023/10/07 13:16:14;;;;;;;;;;;;;32.20;97313.00;;;;5061870;28;19928;-81
2023/10/07 13:19:05;;;;;;;;;;;;;34.50;97317.00;;;;5064407;28;19920;-87
2023/10/07 13:21:59;;;;;;;;;;;;;35.10;97317.00;;;;5064412;28;19924;-84
2023/10/07 13:24:47;;;;;;;;;;;;;32.80;97305.00;;;;5067695;28;19920;-85
2023/10/07 13:27:39;;;;;;;;;;;;;31.30;97303.00;;;;5060276;28;19924;-82
2023/10/07 13:30:30;;;;;;;;;;;;;32.80;97306.00;;;;5066650;28;19920;-83
2023/10/07 13:33:20;;;;;;;;;;;;;31.50;97289.00;;;;5066748;28;19921;-86
2023/10/07 13:36:13;;;;;;;;;;;;;30.40;97290.00;;;;5064894;28;19930;-85
2023/10/07 13:39:03;;;;;;;;;;;;;30.10;97345.00;;;;5062655;28;19920;-83
2023/10/07 13:41:53;;;;;;;;;;;;;30.40;97336.00;;;;5066600;28;19920;-83
2023/10/07 13:44:41;;;;;;;;;;;;;28.90;97349.00;;;;5068886;28;20381;-82
2023/10/07 13:47:32;;;;;;;958.88;898.60;;;;;28.20;97339.00;;;;5066764;28;20409;-84
2023/10/07 13:50:24;;;;;;;928.90;869.53;;;;;28.50;97342.00;;;;5071375;28;20419;-82
2023/10/07 13:53:15;;;;;;;915.65;856.50;;;;;29.30;97349.00;;;;5061756;28;20903;-82
2023/10/07 13:56:12;;;;;;;904.97;846.33;;;;;29.40;97343.00;;;;5067487;28;20937;-82
2023/10/07 13:59:05;;;;;;;871.80;814.13;;;;;29.40;97354.00;;;;5067894;28;20405;-83
2023/10/07 14:01:55;;;;;;;661.72;611.58;;;;;29.40;97354.00;;;;5066730;28;20400;-82
2023/10/07 14:04:47;;;;;;;920.90;861.57;;;;;29.40;97352.00;;;;5076496;28;21150;-83
2023/10/07 14:07:36;;;;;;;919.60;859.80;;;;;29.60;97346.00;;;;5069485;28;20435;-85
2023/10/07 14:10:27;;;;;;;938.40;878.80;;;;;29.90;97291.00;;;;5069058;28;20423;-82